• METAR

    LHBP Budapest Liszt Ferenc repülőtér METAR

    LHBP 190400Z 35005KT CAVOK 17/16 Q1019 NOSIG

    QNH légnyomás:1019hpa
    Hőmérséklet/temperature: 17°C
    Harmatpont/Dew Point Temp: 16°C

    LHDC Debreceni repülőtér METAR

    LHDC 190345Z 03005KT CAVOK 20/15 Q1019 NOSIG

    QNH légnyomás:1019hpa
    Hőmérskélet/temperature: 20°C
    Harmatpont/Dew Point Temp: 15°C

    LHPR Győr-pér repülőtér METAR

    LHPR 190345Z AUTO 11004KT 080V140 9000 NCD 15/14 Q1019 RMK BLU

    QNH légnyomás:1019hpa
    Hőmérskélet/temperature: 15°C
    Harmatpont/Dew Point Temp: 14°C

    lhsm Sármellék repülőtér METAR

    LHSM 190145Z 32005KT CAVOK 17/16 Q1019 NOSIG

    QNH légnyomás:1019hpa
    Hőmérskélet/temperature: 17°C
    Harmatpont/Dew Point Temp: 16°C

    lhpp Pécs-pogány repülőtér METAR

    LHPP 181720Z AUTO /////KT //// ////// 25/14 Q1018

    QNH légnyomás:1018hpa
    Hőmérskélet/temperature: 25°C
    Harmatpont/Dew Point Temp: 14°C

    LHKE Kecskemét repülőtér METAR

    LHKE 190345Z 04006KT CAVOK 19/15 Q1019 NOSIG RMK BLU

    QNH légnyomás:1019hpa
    Hőmérskélet/temperature: 19°C
    Harmatpont/Dew Point Temp: 15°C

    LHSN Szolnok repülőtér METAR

    LHSN 190345Z 02002KT CAVOK 19/15 Q1019 NOSIG RMK BLU

    QNH légnyomás:1019hpa
    Hőmérskélet/temperature: 19°C
    Harmatpont/Dew Point Temp: 15°C

    LHUD szeged repülőtér METAR

    LHUD 190345Z 02001KT CAVOK 18/16 Q1018

    QNH légnyomás:1018hpa
    Hőmérskélet/temperature: 18°C
    Harmatpont/Dew Point Temp: 16°C

  • TÉRKÉPEK

    Felhőkép

    Széltérkép

    Hőtérkép

    radarkép

    map

    map

  • Műholdképek

    Magyarország műholdkép

    Europa műholdkép

    Europa szinoptikus térkép

  • ELTE ELŐREJELZÉS (2 NAP LHBP)

    2 napos légnyomás előrejelzés Budapest LHBP

    2 napos szél előrejelzés Budapest LHBP

    2 napos termik trigger előrejelzés Budapest LHBP

    2 napos felhőzet előrejelzés Budapest LHBP

    2 napos thermal index profile előrejelzés Budapest LHBP

    2 napos átlag emelés előrejelzés Budapest LHBP

    2 napos felhő alap előrejelzés Budapest LHBP

    2 napos hőmérséklet advekció előrejelzés Budapest LHBP

  • VILLÁMRADAR

  • ELŐREJELZÉS

  • WINDFINDER ELŐREJELZÉS

  • RIASZTÁS - VÉSZJELZÉS

Repülésmeteorológia, aktuális időjárási helyzet és előrejelzés

Repülésmeteorológia, várható időjárás jelentések, előrejelzések és riasztások. METAR, TAF adatok, aktuális időjárás helyzetek és térképek.

A meteorológia kialakulásában és fejlődésében kiemelt szerep jutott a repülésnek, illetve a repülés technikai fejlődésének. A repülésmeteorológia elsődlegesen a repülés biztonságát, másodlagosan a repülés gazdaságosságát hivatott szolgálni. Eleinte a katonai repülőgépeknek, később a polgári repülésnek, ma már a sportrepülő pilótáknak, és a mezőgazdasági pilótáknak is egyaránt szükségük van a naprakész meteorológiai információkra.

Repülésmeteorológia oldalunkon összegyűjtöttük a legnépszerűbb és legjobb időjárás oldalak hivatkozásait, hogy repülés előtt vagy akár közben minden fontos forrást egyszerűen és gyorsan megtalálj. Magyarország várható időjárása, légállapoti diagramok, termik előrejelzés, METAR adatok, vészjelzések és figyelmeztetések. A képernyő szélén közvetlenül pedig pozíciód aktuális időjárási paramétereit is megtalálod.

JOGI NYILATKOZAT

Az oldal használatával a látogató elfogadja az alábbi felhasználási feltételeket:

Az oldalon feltüntetett repülésmeteorológia információkat mindenki csak saját felelősségre használhatja. A feltüntetett külső forrásokból származó információk pontosságáért és tartalmáért, valamint az esetlegesen ebből adódó bármilyen káresemény kapcsán a FLYTIME.HU nem vállal felelősséget!